createdAt,value
2022-07-28T00:01:13.852Z,100.00
2022-07-28T00:03:41.853Z,100.00
2022-07-28T00:06:09.888Z,100.00
2022-07-28T00:08:38.941Z,100.00
2022-07-28T00:11:09.293Z,100.00
2022-07-28T00:13:37.219Z,100.00
2022-07-28T00:16:07.688Z,100.00
2022-07-28T00:18:35.386Z,100.00
2022-07-28T00:21:02.999Z,100.00
2022-07-28T00:23:39.167Z,100.00
2022-07-28T00:26:09.358Z,100.00
2022-07-28T00:28:37.641Z,100.00
2022-07-28T00:31:10.988Z,100.00
2022-07-28T00:33:41.927Z,100.00
2022-07-28T00:36:11.764Z,100.00
2022-07-28T00:38:44.303Z,100.00
2022-07-28T00:41:13.018Z,100.00
2022-07-28T00:43:48.897Z,100.00
2022-07-28T00:46:19.477Z,100.00
2022-07-28T00:48:50.785Z,100.00
2022-07-28T00:51:21.161Z,100.00
2022-07-28T00:53:50.623Z,100.00
2022-07-28T00:56:19.968Z,100.00
2022-07-28T00:58:48.479Z,100.00
2022-07-28T01:01:20.532Z,100.00
2022-07-28T01:03:57.473Z,100.00
2022-07-28T01:06:52.449Z,100.00
2022-07-28T01:09:33.174Z,100.00
2022-07-28T01:12:37.763Z,100.00
2022-07-28T01:15:08.578Z,100.00
2022-07-28T01:17:43.565Z,100.00
2022-07-28T01:20:38.438Z,100.00
2022-07-28T01:23:32.140Z,100.00
2022-07-28T01:26:37.507Z,100.00
2022-07-28T01:29:32.531Z,100.00
2022-07-28T01:32:09.763Z,100.00
2022-07-28T01:34:48.831Z,100.00
2022-07-28T01:37:20.707Z,100.00
2022-07-28T01:39:53.406Z,100.00
2022-07-28T01:42:24.136Z,100.00
2022-07-28T01:44:55.076Z,100.00
2022-07-28T01:47:30.094Z,100.00
2022-07-28T01:50:03.823Z,100.00
2022-07-28T01:52:32.564Z,100.00
2022-07-28T01:55:03.703Z,100.00
2022-07-28T01:57:33.476Z,100.00
2022-07-28T02:00:02.336Z,100.00
2022-07-28T02:02:46.213Z,100.00
2022-07-28T02:05:19.373Z,100.00
2022-07-28T02:07:51.618Z,100.00
2022-07-28T02:10:20.372Z,100.00
2022-07-28T02:12:50.475Z,100.00
2022-07-28T02:15:21.087Z,100.00
2022-07-28T02:17:52.379Z,100.00
2022-07-28T02:20:22.483Z,100.00
2022-07-28T02:22:54.134Z,100.00
2022-07-28T02:25:22.203Z,100.00
2022-07-28T02:27:57.412Z,100.00
2022-07-28T02:30:35.470Z,100.00
2022-07-28T02:33:08.311Z,100.00
2022-07-28T02:35:57.531Z,100.00
2022-07-28T02:38:33.030Z,100.00
2022-07-28T02:41:08.046Z,100.00
2022-07-28T02:43:50.027Z,100.00
2022-07-28T02:46:25.677Z,100.00
2022-07-28T02:49:00.647Z,100.00
2022-07-28T02:51:29.825Z,100.00
2022-07-28T02:53:58.839Z,100.00
2022-07-28T02:56:27.047Z,100.00
2022-07-28T02:58:55.502Z,100.00
2022-07-28T03:01:24.972Z,100.00
2022-07-28T03:03:55.562Z,100.00
2022-07-28T03:06:26.593Z,100.00
2022-07-28T03:08:57.617Z,100.00
2022-07-28T03:11:25.398Z,100.00
2022-07-28T03:13:54.546Z,100.00
2022-07-28T03:16:22.899Z,100.00
2022-07-28T03:18:53.775Z,100.00
2022-07-28T03:21:22.551Z,100.00
2022-07-28T03:23:51.798Z,100.00
2022-07-28T03:26:36.123Z,100.00
2022-07-28T03:29:04.343Z,100.00
2022-07-28T03:31:34.298Z,100.00
2022-07-28T03:34:02.701Z,100.00
2022-07-28T03:36:40.133Z,100.00
2022-07-28T03:39:12.008Z,100.00
2022-07-28T03:41:43.931Z,100.00
2022-07-28T03:44:13.998Z,100.00
2022-07-28T03:46:54.991Z,100.00
2022-07-28T03:49:22.773Z,100.00
2022-07-28T03:51:50.655Z,100.00
2022-07-28T03:54:18.507Z,100.00
2022-07-28T03:56:46.102Z,100.00
2022-07-28T03:59:13.790Z,100.00
2022-07-28T04:01:41.601Z,100.00
2022-07-28T04:04:09.280Z,100.00
2022-07-28T04:06:37.464Z,100.00
2022-07-28T04:09:05.615Z,100.00
2022-07-28T04:11:33.378Z,100.00
2022-07-28T04:14:01.001Z,100.00
2022-07-28T04:16:29.054Z,100.00
2022-07-28T04:18:56.919Z,100.00
2022-07-28T04:21:24.610Z,100.00
2022-07-28T04:23:52.833Z,100.00
2022-07-28T04:26:20.807Z,100.00
2022-07-28T04:28:48.456Z,100.00
2022-07-28T04:31:17.255Z,100.00
2022-07-28T04:33:45.100Z,100.00
2022-07-28T04:36:13.543Z,100.00
2022-07-28T04:38:42.314Z,100.00
2022-07-28T04:41:09.966Z,100.00
2022-07-28T04:43:38.727Z,100.00
2022-07-28T04:46:06.669Z,100.00
2022-07-28T04:48:34.277Z,100.00
2022-07-28T04:51:02.592Z,100.00
2022-07-28T04:53:30.748Z,100.00
2022-07-28T04:55:58.360Z,100.00
2022-07-28T04:58:26.111Z,100.00
2022-07-28T05:00:54.081Z,100.00
2022-07-28T05:03:21.762Z,100.00
2022-07-28T05:05:53.888Z,100.00
2022-07-28T05:08:25.602Z,100.00
2022-07-28T05:10:56.520Z,100.00
2022-07-28T05:13:33.703Z,100.00
2022-07-28T05:16:03.139Z,100.00
2022-07-28T05:18:31.695Z,100.00
2022-07-28T05:20:59.359Z,100.00
2022-07-28T05:23:27.012Z,100.00
2022-07-28T05:25:54.677Z,100.00
2022-07-28T05:28:22.460Z,100.00
2022-07-28T05:30:50.082Z,100.00
2022-07-28T05:33:17.882Z,100.00
2022-07-28T05:35:52.958Z,100.00
2022-07-28T05:38:22.006Z,100.00
2022-07-28T05:40:50.532Z,100.00
2022-07-28T05:43:19.030Z,100.00
2022-07-28T05:45:47.499Z,100.00
2022-07-28T05:48:20.162Z,100.00
2022-07-28T05:50:48.461Z,100.00
2022-07-28T05:53:16.427Z,100.00
2022-07-28T05:56:00.693Z,100.00
2022-07-28T05:58:31.412Z,100.00
2022-07-28T06:01:00.763Z,100.00
2022-07-28T06:03:32.429Z,100.00
2022-07-28T06:06:15.723Z,100.00
2022-07-28T06:08:47.735Z,100.00
2022-07-28T06:11:21.651Z,100.00
2022-07-28T06:13:50.902Z,100.00
2022-07-28T06:16:23.337Z,100.00
2022-07-28T06:18:52.205Z,100.00
2022-07-28T06:21:22.316Z,100.00
2022-07-28T06:23:53.103Z,100.00
2022-07-28T06:26:23.378Z,100.00
2022-07-28T06:28:51.991Z,100.00
2022-07-28T06:31:22.577Z,100.00
2022-07-28T06:33:50.909Z,100.00
2022-07-28T06:36:18.470Z,100.00
2022-07-28T06:38:46.327Z,100.00
2022-07-28T06:41:14.038Z,100.00
2022-07-28T06:43:41.899Z,100.00
2022-07-28T06:46:09.830Z,100.00
2022-07-28T06:48:38.720Z,100.00
2022-07-28T06:51:06.426Z,100.00
2022-07-28T06:53:34.707Z,100.00
2022-07-28T06:56:05.226Z,100.00
2022-07-28T06:58:33.422Z,100.00
2022-07-28T07:01:02.736Z,100.00
2022-07-28T07:03:31.089Z,100.00
2022-07-28T07:05:58.666Z,100.00
2022-07-28T07:08:26.874Z,100.00
2022-07-28T07:10:54.739Z,100.00
2022-07-28T07:13:22.516Z,100.00
2022-07-28T07:15:52.864Z,100.00
2022-07-28T07:18:20.595Z,100.00
2022-07-28T07:20:49.249Z,100.00
2022-07-28T07:23:17.131Z,100.00
2022-07-28T07:25:45.231Z,100.00
2022-07-28T07:28:12.762Z,100.00
2022-07-28T07:30:41.715Z,100.00
2022-07-28T07:33:10.436Z,100.00
2022-07-28T07:35:38.690Z,100.00
2022-07-28T07:38:06.711Z,100.00
2022-07-28T07:40:35.291Z,100.00
2022-07-28T07:43:03.158Z,100.00
2022-07-28T07:45:31.943Z,100.00
2022-07-28T07:48:01.480Z,98.39
2022-07-28T07:50:29.947Z,98.20
2022-07-28T07:52:57.514Z,97.39
2022-07-28T07:55:25.184Z,95.75
2022-07-28T07:57:53.460Z,96.24
2022-07-28T08:00:29.167Z,94.21
2022-07-28T08:02:58.575Z,92.81
2022-07-28T08:05:35.999Z,92.09
2022-07-28T08:08:05.642Z,92.08
2022-07-28T08:10:36.083Z,92.25
2022-07-28T08:13:04.824Z,92.36
2022-07-28T08:15:35.048Z,93.82
2022-07-28T08:18:03.517Z,92.13
2022-07-28T08:20:31.075Z,93.33
2022-07-28T08:22:59.055Z,93.78
2022-07-28T08:25:27.290Z,92.84
2022-07-28T08:27:55.674Z,91.67
2022-07-28T08:30:26.298Z,92.88
2022-07-28T08:32:58.115Z,92.40
2022-07-28T08:35:35.332Z,92.52
2022-07-28T08:38:07.082Z,91.73
2022-07-28T08:40:38.832Z,92.03
2022-07-28T08:43:14.134Z,92.70
2022-07-28T08:45:44.753Z,91.38
2022-07-28T08:48:13.496Z,90.93
2022-07-28T08:50:44.167Z,90.44
2022-07-28T08:53:15.231Z,89.51
2022-07-28T08:55:44.040Z,88.43
2022-07-28T08:58:13.518Z,87.17
2022-07-28T09:00:42.026Z,86.58
2022-07-28T09:03:11.713Z,86.80
2022-07-28T09:05:43.287Z,87.98
2022-07-28T09:08:12.716Z,87.70
2022-07-28T09:10:41.387Z,85.70
2022-07-28T09:13:18.005Z,85.89
2022-07-28T09:15:46.626Z,84.86
2022-07-28T09:18:16.358Z,85.21
2022-07-28T09:20:45.249Z,85.23
2022-07-28T09:23:43.532Z,84.87
2022-07-28T09:26:11.311Z,86.54
2022-07-28T09:28:54.106Z,89.02
2022-07-28T09:31:23.788Z,90.28
2022-07-28T09:34:02.340Z,90.54
2022-07-28T09:36:37.648Z,89.58
2022-07-28T09:39:05.311Z,88.25
2022-07-28T09:41:50.395Z,86.46
2022-07-28T09:44:22.951Z,87.41
2022-07-28T09:46:51.373Z,87.14
2022-07-28T09:49:21.835Z,84.16
2022-07-28T09:52:02.726Z,82.78
2022-07-28T09:54:30.683Z,80.90
2022-07-28T09:56:59.394Z,80.68
2022-07-28T09:59:52.255Z,81.28
2022-07-28T10:02:29.510Z,79.38
2022-07-28T10:05:00.259Z,78.90
2022-07-28T10:07:30.136Z,79.95
2022-07-28T10:10:07.861Z,77.70
2022-07-28T10:12:37.117Z,78.37
2022-07-28T10:15:34.237Z,79.01
2022-07-28T10:18:05.198Z,77.90
2022-07-28T10:20:34.332Z,77.40
2022-07-28T10:23:09.898Z,76.41
2022-07-28T10:25:39.823Z,74.70
2022-07-28T10:28:11.866Z,74.69
2022-07-28T10:30:41.330Z,75.63
2022-07-28T10:33:14.606Z,75.99
2022-07-28T10:35:54.342Z,76.44
2022-07-28T10:38:28.198Z,76.36
2022-07-28T10:40:58.514Z,77.08
2022-07-28T10:43:29.130Z,76.93
2022-07-28T10:46:07.076Z,76.64
2022-07-28T10:48:39.435Z,76.86
2022-07-28T10:51:07.608Z,75.57
2022-07-28T10:53:52.815Z,76.31
2022-07-28T10:56:48.403Z,74.56
2022-07-28T10:59:38.559Z,74.39
2022-07-28T11:02:06.785Z,71.66
2022-07-28T11:04:51.840Z,71.21
2022-07-28T11:07:20.835Z,74.52
2022-07-28T11:09:49.009Z,73.46
2022-07-28T11:12:17.073Z,72.44
2022-07-28T11:14:45.117Z,72.66
2022-07-28T11:17:16.026Z,70.86
2022-07-28T11:20:06.909Z,71.38
2022-07-28T11:22:34.288Z,71.03
2022-07-28T11:25:19.785Z,69.56
2022-07-28T11:27:54.474Z,72.65
2022-07-28T11:30:28.955Z,72.81
2022-07-28T11:32:57.889Z,72.95
2022-07-28T11:35:27.582Z,72.66
2022-07-28T11:38:01.732Z,75.49
2022-07-28T11:40:30.863Z,73.84
2022-07-28T11:43:35.615Z,73.80
2022-07-28T11:46:10.090Z,71.40
2022-07-28T11:48:41.540Z,71.64
2022-07-28T11:51:13.089Z,72.80
2022-07-28T11:53:55.688Z,73.42
2022-07-28T11:56:27.170Z,71.80
2022-07-28T11:58:58.880Z,70.49
2022-07-28T12:01:31.651Z,71.32
2022-07-28T12:04:01.207Z,71.21
2022-07-28T12:06:36.988Z,70.99
2022-07-28T12:09:09.520Z,72.47
2022-07-28T12:11:41.219Z,71.42
2022-07-28T12:14:15.001Z,71.34
2022-07-28T12:16:44.705Z,75.95
2022-07-28T12:19:19.293Z,75.28
2022-07-28T12:21:53.250Z,79.15
2022-07-28T12:24:44.910Z,79.69
2022-07-28T12:27:16.440Z,80.30
2022-07-28T12:29:55.590Z,78.19
2022-07-28T12:32:29.817Z,71.92
2022-07-28T12:34:57.488Z,69.62
2022-07-28T12:37:25.507Z,66.36
2022-07-28T12:39:53.460Z,67.08
2022-07-28T12:42:21.922Z,73.16
2022-07-28T12:44:51.440Z,74.57
2022-07-28T12:47:28.190Z,73.58
2022-07-28T12:50:19.226Z,72.27
2022-07-28T12:53:08.218Z,73.54
2022-07-28T12:55:36.678Z,72.06
2022-07-28T12:58:05.858Z,68.58
2022-07-28T13:00:36.054Z,68.21
2022-07-28T13:03:24.294Z,72.65
2022-07-28T13:06:02.875Z,73.47
2022-07-28T13:08:47.475Z,72.78
2022-07-28T13:11:42.516Z,72.24
2022-07-28T13:14:07.008Z,78.95
2022-07-28T13:16:36.675Z,76.72
2022-07-28T13:19:06.227Z,76.35
2022-07-28T13:21:58.120Z,75.98
2022-07-28T13:24:29.778Z,73.11
2022-07-28T13:26:59.202Z,72.19
2022-07-28T13:29:27.201Z,70.41
2022-07-28T13:31:55.284Z,68.93
2022-07-28T13:34:23.569Z,70.27
2022-07-28T13:36:52.537Z,73.55
2022-07-28T13:39:20.431Z,75.09
2022-07-28T13:41:56.664Z,76.10
2022-07-28T13:44:30.002Z,77.11
2022-07-28T13:46:59.610Z,81.72
2022-07-28T13:49:29.211Z,88.79
2022-07-28T13:52:00.317Z,97.38
2022-07-28T13:54:28.675Z,98.10
2022-07-28T13:57:12.323Z,98.35
2022-07-28T13:59:44.129Z,95.46
2022-07-28T14:02:15.169Z,94.15
2022-07-28T14:04:45.940Z,91.61
2022-07-28T14:07:21.027Z,86.75
2022-07-28T14:09:52.536Z,85.86
2022-07-28T14:12:20.197Z,85.97
2022-07-28T14:14:48.907Z,84.79
2022-07-28T14:20:12.243Z,78.05
2022-07-28T14:22:46.297Z,80.49
2022-07-28T14:25:20.774Z,83.09
2022-07-28T14:27:50.630Z,83.46
2022-07-28T14:30:20.228Z,84.59
2022-07-28T14:32:48.125Z,86.28
2022-07-28T14:35:16.690Z,87.26
2022-07-28T14:40:33.709Z,86.67
2022-07-28T14:43:07.005Z,87.73
2022-07-28T14:46:00.504Z,87.59
2022-07-28T14:48:23.245Z,89.80
2022-07-28T14:50:52.434Z,88.14
2022-07-28T14:53:22.311Z,88.92
2022-07-28T14:55:50.000Z,88.19
2022-07-28T14:58:17.466Z,88.59
2022-07-28T15:00:45.391Z,88.35
2022-07-28T15:03:13.489Z,88.64
2022-07-28T15:05:41.547Z,88.32
2022-07-28T15:08:09.155Z,84.15
2022-07-28T15:10:36.868Z,84.92
2022-07-28T15:13:04.729Z,85.11
2022-07-28T15:15:32.261Z,84.31
2022-07-28T15:18:00.430Z,82.63
2022-07-28T15:20:28.667Z,80.61
2022-07-28T15:22:56.375Z,77.80
2022-07-28T15:25:24.283Z,78.59
2022-07-28T15:27:51.815Z,78.52
2022-07-28T15:30:19.586Z,77.15
2022-07-28T15:32:56.225Z,76.58
2022-07-28T15:35:26.126Z,74.74
2022-07-28T15:37:54.975Z,75.45
2022-07-28T15:40:23.367Z,73.89
2022-07-28T15:42:51.494Z,77.45
2022-07-28T15:45:20.098Z,81.54
2022-07-28T15:47:48.419Z,80.84
2022-07-28T15:50:16.250Z,80.13
2022-07-28T15:52:44.098Z,81.19
2022-07-28T15:55:11.850Z,79.97
2022-07-28T15:57:39.566Z,84.27
2022-07-28T16:00:08.206Z,86.72
2022-07-28T16:02:35.849Z,90.14
2022-07-28T16:05:03.965Z,93.95
2022-07-28T16:07:35.133Z,95.97
2022-07-28T16:10:03.366Z,96.68
2022-07-28T16:12:31.494Z,96.46
2022-07-28T16:15:00.098Z,97.83
2022-07-28T16:17:28.151Z,98.78
2022-07-28T16:19:58.761Z,100.00
2022-07-28T16:22:30.746Z,100.00
2022-07-28T16:24:58.359Z,100.00
2022-07-28T16:27:26.204Z,100.00
2022-07-28T16:29:53.828Z,100.00
2022-07-28T16:32:22.031Z,100.00
2022-07-28T16:34:49.651Z,100.00
2022-07-28T16:37:19.704Z,100.00
2022-07-28T16:39:48.447Z,100.00
2022-07-28T16:42:17.009Z,100.00
2022-07-28T16:44:44.575Z,100.00
2022-07-28T16:47:12.587Z,100.00
2022-07-28T16:49:45.335Z,100.00
2022-07-28T16:52:14.979Z,100.00
2022-07-28T16:54:43.068Z,100.00
2022-07-28T16:57:12.697Z,100.00
2022-07-28T16:59:48.096Z,100.00
2022-07-28T17:02:17.355Z,100.00
2022-07-28T17:04:46.335Z,100.00
2022-07-28T17:07:14.341Z,100.00
2022-07-28T17:09:42.029Z,100.00
2022-07-28T17:12:12.473Z,100.00
2022-07-28T17:14:41.031Z,100.00
2022-07-28T17:17:11.116Z,100.00
2022-07-28T17:19:43.388Z,100.00
2022-07-28T17:22:15.624Z,100.00
2022-07-28T17:24:43.582Z,100.00
2022-07-28T17:29:59.447Z,100.00
2022-07-28T17:32:27.354Z,100.00
2022-07-28T17:34:55.817Z,100.00
2022-07-28T17:37:29.715Z,100.00
2022-07-28T17:39:59.311Z,100.00
2022-07-28T17:42:27.282Z,100.00
2022-07-28T17:44:56.391Z,100.00
2022-07-28T17:47:36.013Z,100.00
2022-07-28T17:50:07.174Z,100.00
2022-07-28T17:52:35.274Z,100.00
2022-07-28T17:55:23.375Z,100.00
2022-07-28T17:57:52.149Z,100.00
2022-07-28T18:00:21.703Z,100.00
2022-07-28T18:02:50.004Z,100.00
2022-07-28T18:05:20.485Z,100.00
2022-07-28T18:07:48.992Z,100.00
2022-07-28T18:10:24.781Z,100.00
2022-07-28T18:12:52.931Z,100.00
2022-07-28T18:15:22.004Z,100.00
2022-07-28T18:17:55.542Z,100.00
2022-07-28T18:20:29.950Z,100.00
2022-07-28T18:22:58.101Z,100.00
2022-07-28T18:25:26.691Z,100.00
2022-07-28T18:27:58.551Z,100.00
2022-07-28T18:30:27.026Z,100.00
2022-07-28T18:32:56.060Z,100.00
2022-07-28T18:35:24.036Z,100.00
2022-07-28T18:37:51.911Z,100.00
2022-07-28T18:40:21.640Z,100.00
2022-07-28T18:42:52.107Z,100.00
2022-07-28T18:45:20.031Z,100.00
2022-07-28T18:47:49.136Z,100.00
2022-07-28T18:50:30.170Z,100.00
2022-07-28T18:53:00.030Z,100.00
2022-07-28T18:55:27.934Z,100.00
2022-07-28T18:57:55.716Z,100.00
2022-07-28T19:00:23.407Z,100.00
2022-07-28T19:02:53.430Z,100.00
2022-07-28T19:05:21.191Z,100.00
2022-07-28T19:07:48.894Z,100.00
2022-07-28T19:10:16.763Z,100.00
2022-07-28T19:12:46.357Z,100.00
2022-07-28T19:15:15.179Z,100.00
2022-07-28T19:17:44.443Z,100.00
2022-07-28T19:20:12.013Z,100.00
2022-07-28T19:22:44.687Z,100.00
2022-07-28T19:25:12.235Z,100.00
2022-07-28T19:27:40.100Z,100.00
2022-07-28T19:30:09.130Z,100.00
2022-07-28T19:32:41.728Z,100.00
2022-07-28T19:35:10.750Z,100.00
2022-07-28T19:37:39.049Z,100.00
2022-07-28T19:40:07.470Z,100.00
2022-07-28T19:42:35.432Z,100.00
2022-07-28T19:45:06.994Z,100.00
2022-07-28T19:47:37.431Z,100.00
2022-07-28T19:50:06.372Z,100.00
2022-07-28T19:52:34.721Z,100.00
2022-07-28T19:55:06.490Z,100.00
2022-07-28T19:57:37.324Z,100.00
2022-07-28T20:00:07.470Z,100.00
2022-07-28T20:02:39.523Z,100.00
2022-07-28T20:05:09.485Z,100.00
2022-07-28T20:07:38.303Z,100.00
2022-07-28T20:10:06.770Z,100.00
2022-07-28T20:12:39.191Z,100.00
2022-07-28T20:15:08.415Z,100.00
2022-07-28T20:17:39.838Z,100.00
2022-07-28T20:20:11.741Z,100.00
2022-07-28T20:22:41.259Z,100.00
2022-07-28T20:25:10.127Z,100.00
2022-07-28T20:27:40.737Z,100.00
2022-07-28T20:30:11.503Z,100.00
2022-07-28T20:32:42.251Z,100.00
2022-07-28T20:35:11.189Z,100.00
2022-07-28T20:37:39.443Z,100.00
2022-07-28T20:40:09.088Z,100.00
2022-07-28T20:42:37.563Z,100.00
2022-07-28T20:45:05.930Z,100.00
2022-07-28T20:47:34.111Z,100.00
2022-07-28T20:50:02.171Z,100.00
2022-07-28T20:52:30.917Z,100.00
2022-07-28T20:54:58.727Z,100.00
2022-07-28T20:57:26.518Z,100.00
2022-07-28T20:59:54.180Z,100.00
2022-07-28T21:02:23.183Z,100.00
2022-07-28T21:04:52.125Z,100.00
2022-07-28T21:08:04.466Z,100.00
2022-07-28T21:10:11.972Z,100.00
2022-07-28T21:12:39.748Z,100.00
2022-07-28T21:15:09.283Z,100.00
2022-07-28T21:17:37.091Z,100.00
2022-07-28T21:20:06.399Z,100.00
2022-07-28T21:22:37.696Z,100.00
2022-07-28T21:25:08.083Z,100.00
2022-07-28T21:27:54.379Z,100.00
2022-07-28T21:30:28.162Z,100.00
2022-07-28T21:32:56.365Z,100.00
2022-07-28T21:35:24.397Z,100.00
2022-07-28T21:37:52.170Z,100.00
2022-07-28T21:40:25.347Z,100.00
2022-07-28T21:42:53.216Z,100.00
2022-07-28T21:45:22.420Z,100.00
2022-07-28T21:47:51.440Z,100.00
2022-07-28T21:50:19.411Z,100.00
2022-07-28T21:52:47.045Z,100.00
2022-07-28T21:55:14.766Z,100.00
2022-07-28T21:57:43.053Z,100.00
2022-07-28T22:00:12.601Z,100.00
2022-07-28T22:02:41.973Z,100.00
2022-07-28T22:05:10.204Z,100.00
2022-07-28T22:07:39.982Z,100.00
2022-07-28T22:10:08.177Z,100.00
2022-07-28T22:12:36.559Z,100.00
2022-07-28T22:15:04.632Z,100.00
2022-07-28T22:17:38.547Z,100.00
2022-07-28T22:20:07.655Z,100.00
2022-07-28T22:22:35.675Z,100.00
2022-07-28T22:25:03.961Z,100.00
2022-07-28T22:27:33.950Z,100.00
2022-07-28T22:30:02.993Z,100.00
2022-07-28T22:32:32.786Z,100.00
2022-07-28T22:35:00.634Z,100.00
2022-07-28T22:37:28.405Z,100.00
2022-07-28T22:39:56.367Z,100.00
2022-07-28T22:42:24.070Z,100.00
2022-07-28T22:44:54.149Z,100.00
2022-07-28T22:47:21.863Z,100.00
2022-07-28T22:49:55.822Z,100.00
2022-07-28T22:52:27.466Z,100.00
2022-07-28T22:54:56.528Z,100.00
2022-07-28T22:57:26.171Z,100.00
2022-07-28T22:59:53.611Z,100.00
2022-07-28T23:02:21.409Z,100.00
2022-07-28T23:04:51.965Z,100.00
2022-07-28T23:07:19.783Z,100.00
2022-07-28T23:10:11.851Z,100.00
2022-07-28T23:12:42.206Z,100.00
2022-07-28T23:15:09.912Z,100.00
2022-07-28T23:17:37.726Z,100.00
2022-07-28T23:20:06.112Z,100.00
2022-07-28T23:22:34.716Z,100.00
2022-07-28T23:25:03.899Z,100.00
2022-07-28T23:27:31.680Z,100.00
2022-07-28T23:29:59.331Z,100.00
2022-07-28T23:32:26.981Z,100.00
2022-07-28T23:34:56.128Z,100.00
2022-07-28T23:37:23.755Z,100.00
2022-07-28T23:39:52.379Z,100.00
2022-07-28T23:42:20.087Z,100.00
2022-07-28T23:44:47.669Z,100.00
2022-07-28T23:47:15.313Z,100.00
2022-07-28T23:49:43.036Z,100.00
2022-07-28T23:52:10.786Z,100.00
2022-07-28T23:54:39.540Z,100.00
2022-07-28T23:57:07.182Z,100.00
2022-07-28T23:59:34.720Z,100.00
